Archival Weather

Nairobi Jkia

Nairobi Jkia, Kenya (HKJK)

Report from: Sunday, March 19, 2023 10:00 PM EAT
Current time: Tuesday, February 27, 2024 1:38 PM EAT

Current weather – Weather history – Daily summaries
Weather forecast

Temperature23.0°C (73.4°F)
Dew point11.0°C (51.8°F)
Winds 10 kts (5.1 m/s, 11.5 mph) East (90°)
Visibility6.2 mi. (10 km)
Clouds Few clouds 2,500 ft. (762 m)
Ceiling: Broken clouds 8,000 ft. (2,438 m)
Altimeter30.12 in.Hg (1020 mB)
Relative humidity47 %
Density altitude890 ft. (271 m)
Remarks No significant changes expected in the next two hours
Flight conditions Visual Meteorological Conditions
Raw dataHKJK 191900Z 09010KT 9999 FEW025 BKN080 23/11 Q1020 NOSIG
An error has occurred. This application may no longer respond until reloaded. Reload 🗙